Time;durP1;ratioP1;P1;durP2;ratioP2;P2;SDS_P1;SDS_P2;PMS_P1;PMS_P2;Temp;Humidity;BMP_temperature;BMP_pressure;BME280_temperature;BME280_humidity;BME280_pressure;Samples;Min_cycle;Max_cycle;Signal;HPM_P1;HPM_P2
2021/01/18 00:01:30;;;;;;;54.33;31.65;;;;;;;2.69;57.14;101840.16;5029665;28;20378;-71
2021/01/18 00:03:57;;;;;;;70.95;36.50;;;;;;;2.68;57.19;101843.63;5029783;28;20051;-72
2021/01/18 00:06:23;;;;;;;74.50;38.40;;;;;;;2.67;57.12;101837.59;5029593;28;20486;-72
2021/01/18 00:08:49;;;;;;;67.00;34.55;;;;;;;2.65;57.02;101838.47;5029278;28;20076;-72
2021/01/18 00:11:17;;;;;;;57.63;31.88;;;;;;;2.64;57.31;101841.91;5029133;28;20054;-72
2021/01/18 00:13:48;;;;;;;52.33;30.75;;;;;;;2.62;57.23;101849.72;5029387;28;20060;-71
2021/01/18 00:16:23;;;;;;;47.30;28.02;;;;;;;2.61;57.31;101847.97;5029324;28;20506;-72
2021/01/18 00:18:50;;;;;;;45.67;28.73;;;;;;;2.59;57.40;101849.72;5029437;28;20053;-71
2021/01/18 00:21:16;;;;;;;45.33;27.70;;;;;;;2.57;57.06;101851.47;5029252;28;20083;-70
2021/01/18 00:23:44;;;;;;;42.65;26.80;;;;;;;2.56;57.38;101853.19;5029452;28;20053;-71
2021/01/18 00:26:11;;;;;;;41.63;26.05;;;;;;;2.54;57.55;101854.94;5028747;28;20046;-71
2021/01/18 00:28:40;;;;;;;49.33;28.38;;;;;;;2.52;57.54;101854.06;5028967;28;20052;-69
2021/01/18 00:31:08;;;;;;;50.35;28.25;;;;;;;2.51;57.77;101846.31;5030566;28;20065;-70
2021/01/18 00:33:35;;;;;;;46.85;26.83;;;;;;;2.51;57.67;101851.50;5031964;28;20423;-71
2021/01/18 00:36:02;;;;;;;54.10;29.63;;;;;;;2.51;57.68;101856.69;5031483;28;20051;-71
2021/01/18 00:38:28;;;;;;;50.72;28.15;;;;;;;2.54;57.74;101857.53;5036853;28;20045;-71
2021/01/18 00:40:54;;;;;;;41.00;25.17;;;;;;;2.53;57.79;101857.53;5036457;28;20067;-70
2021/01/18 00:43:21;;;;;;;36.42;24.23;;;;;;;2.52;57.76;101856.66;5032290;28;20052;-70
2021/01/18 00:45:47;;;;;;;40.15;23.77;;;;;;;2.49;57.95;101848.91;5032368;28;20052;-70
2021/01/18 00:48:13;;;;;;;44.03;26.27;;;;;;;2.48;57.54;101849.78;5032202;28;20417;-70
2021/01/18 00:50:39;;;;;;;37.97;23.48;;;;;;;2.49;57.59;101846.31;5032088;28;20631;-70
2021/01/18 00:53:06;;;;;;;35.13;22.80;;;;;;;2.49;57.55;101850.63;5032276;28;20053;-70
2021/01/18 00:55:32;;;;;;;35.63;22.25;;;;;;;2.49;57.38;101853.22;5032250;28;20453;-71
2021/01/18 00:57:58;;;;;;;41.00;24.92;;;;;;;2.47;57.57;101852.38;5032565;28;20417;-71
2021/01/18 01:00:29;;;;;;;67.03;33.33;;;;;;;2.47;57.62;101857.56;5032113;28;20041;-70
2021/01/18 01:02:57;;;;;;;51.78;27.98;;;;;;;2.47;57.52;101849.78;5032310;28;20452;-71
2021/01/18 01:05:26;;;;;;;43.90;26.52;;;;;;;2.45;57.45;101842.88;5031737;28;20486;-71
2021/01/18 01:07:55;;;;;;;40.90;24.65;;;;;;;2.44;57.67;101851.53;5032384;28;20053;-70
2021/01/18 01:10:24;;;;;;;42.38;24.30;;;;;;;2.45;57.63;101853.25;5031966;28;20046;-70
2021/01/18 01:13:00;;;;;;;46.53;25.67;;;;;;;2.45;57.65;101852.38;5032036;28;20486;-70
2021/01/18 01:15:27;;;;;;;36.90;24.38;;;;;;;2.44;57.68;101850.69;5032023;28;20081;-71
2021/01/18 01:17:54;;;;;;;38.50;24.30;;;;;;;2.42;57.51;101855.84;5031985;28;20045;-71
2021/01/18 01:20:21;;;;;;;38.55;24.05;;;;;;;2.42;57.58;101857.59;5032129;28;20048;-70
2021/01/18 01:22:48;;;;;;;57.67;29.83;;;;;;;2.39;57.68;101858.47;5031882;28;20046;-70
2021/01/18 01:25:17;;;;;;;58.80;30.60;;;;;;;2.41;57.72;101858.44;5032084;28;20502;-70
2021/01/18 01:27:45;;;;;;;40.80;25.00;;;;;;;2.39;57.60;101863.63;5031979;28;20486;-70
2021/01/18 01:30:14;;;;;;;34.33;22.98;;;;;;;2.37;57.79;101861.91;5032173;28;20048;-71
2021/01/18 01:32:42;;;;;;;37.65;23.30;;;;;;;2.35;57.56;101861.06;5031966;28;20049;-71
2021/01/18 01:35:10;;;;;;;49.78;27.38;;;;;;;2.33;57.61;101853.31;5031981;28;20042;-70
2021/01/18 01:37:37;;;;;;;44.92;26.48;;;;;;;2.33;57.35;101865.41;5031726;28;20046;-70
2021/01/18 01:40:12;;;;;;;72.45;33.92;;;;;;;2.33;57.71;101858.47;5032048;28;20045;-70
2021/01/18 01:42:38;;;;;;;86.05;40.15;;;;;;;2.33;57.76;101858.47;5031132;28;20051;-71
2021/01/18 01:45:10;;;;;;;63.47;32.25;;;;;;;2.34;57.78;101859.34;5031782;28;20045;-70
2021/01/18 01:47:39;;;;;;;49.38;26.05;;;;;;;2.33;57.84;101863.66;5031120;28;20406;-71
2021/01/18 01:50:09;;;;;;;37.90;22.73;;;;;;;2.31;57.87;101860.22;5031695;28;20049;-70
2021/01/18 01:52:40;;;;;;;39.03;22.20;;;;;;;2.30;57.82;101861.09;5033601;28;20053;-70
2021/01/18 01:55:24;;;;;;;33.95;21.73;;;;;;;2.27;57.81;101869.75;5035545;28;20045;-69
2021/01/18 01:57:53;;;;;;;37.92;24.50;;;;;;;2.26;57.91;101862.84;5035450;28;20049;-70
2021/01/18 02:00:20;;;;;;;38.25;24.38;;;;;;;2.26;57.93;101869.72;5035486;28;20053;-70
2021/01/18 02:02:46;;;;;;;34.72;22.52;;;;;;;2.26;57.78;101872.31;5035349;28;20052;-70
2021/01/18 02:05:14;;;;;;;31.35;21.55;;;;;;;2.25;57.81;101871.47;5035007;28;20056;-71
2021/01/18 02:07:41;;;;;;;32.83;21.92;;;;;;;2.25;57.86;101875.78;5034254;28;20037;-70
2021/01/18 02:10:09;;;;;;;32.00;21.50;;;;;;;2.23;57.88;101875.78;5035083;28;20056;-71
2021/01/18 02:12:35;;;;;;;34.20;22.40;;;;;;;2.22;57.76;101879.25;5035231;28;20049;-70
2021/01/18 02:15:11;;;;;;;34.85;21.27;;;;;;;2.21;57.91;101881.81;5035317;28;20065;-70
2021/01/18 02:17:52;;;;;;;33.83;21.50;;;;;;;2.20;57.74;101890.50;5035055;28;20056;-70
2021/01/18 02:20:56;;;;;;;32.33;21.63;;;;;;;2.19;57.75;101879.25;5035415;28;20077;-70
2021/01/18 02:23:58;;;;;;;30.33;19.95;;;;;;;2.17;57.79;101887.88;5035123;28;20486;-70
2021/01/18 02:26:49;;;;;;;33.47;21.50;;;;;;;2.16;57.77;101897.41;5032717;28;20082;-70
2021/01/18 02:29:40;;;;;;;30.60;20.58;;;;;;;2.14;57.71;101896.53;5034992;28;20053;-70
2021/01/18 02:32:21;;;;;;;33.03;21.45;;;;;;;2.12;57.50;101893.06;5035097;28;20053;-71
2021/01/18 02:35:18;;;;;;;31.55;20.80;;;;;;;2.09;57.68;101890.50;5034895;28;20140;-70
2021/01/18 02:37:57;;;;;;;29.20;20.67;;;;;;;2.08;57.38;101896.53;5034978;28;20045;-71
2021/01/18 02:40:35;;;;;;;29.42;18.95;;;;;;;2.04;57.45;101898.28;5035085;28;20405;-70
2021/01/18 02:43:05;;;;;;;30.13;20.85;;;;;;;2.01;57.26;101895.72;5034567;28;20052;-70
2021/01/18 02:45:33;;;;;;;30.90;20.90;;;;;;;2.00;57.67;101893.13;5034678;28;20041;-70
2021/01/18 02:48:01;;;;;;;30.83;20.00;;;;;;;1.98;57.70;101900.03;5034763;28;20045;-70
2021/01/18 02:50:29;;;;;;;28.80;18.90;;;;;;;1.98;57.80;101900.03;5034111;28;20494;-70
2021/01/18 02:52:55;;;;;;;27.80;19.25;;;;;;;1.95;57.71;101896.56;5034658;28;20046;-70
2021/01/18 02:55:21;;;;;;;30.00;19.80;;;;;;;1.95;57.79;101893.97;5034504;28;20061;-70
2021/01/18 02:57:50;;;;;;;31.85;20.30;;;;;;;1.96;57.87;101889.69;5034485;28;20054;-70
2021/01/18 03:00:33;;;;;;;31.83;19.88;;;;;;;1.95;57.90;101891.38;5034325;28;20494;-71
2021/01/18 03:03:31;;;;;;;29.00;19.67;;;;;;;1.95;57.99;101899.16;5034241;28;20056;-70
2021/01/18 03:06:06;;;;;;;28.95;19.00;;;;;;;1.94;57.91;101901.75;5034200;28;20052;-70
2021/01/18 03:08:46;;;;;;;26.73;18.20;;;;;;;1.92;58.00;101896.59;5034580;28;20052;-70
2021/01/18 03:11:34;;;;;;;28.70;18.98;;;;;;;1.92;58.07;101886.22;5034113;28;20048;-70
2021/01/18 03:14:08;;;;;;;28.33;19.13;;;;;;;1.91;58.00;101886.25;5034022;28;20428;-71
2021/01/18 03:16:38;;;;;;;32.30;19.38;;;;;;;1.90;57.89;101882.78;5034025;28;20491;-70
2021/01/18 03:19:06;;;;;;;29.33;19.13;;;;;;;1.90;58.19;101894.88;5034307;28;20347;-71
2021/01/18 03:21:33;;;;;;;30.33;19.65;;;;;;;1.88;58.18;101897.47;5033880;28;20045;-71
2021/01/18 03:23:59;;;;;;;28.65;17.95;;;;;;;1.88;58.18;101900.06;5034283;28;20049;-70
2021/01/18 03:26:26;;;;;;;30.15;18.83;;;;;;;1.85;58.15;101905.22;5033768;28;20048;-70
2021/01/18 03:28:52;;;;;;;30.48;18.75;;;;;;;1.82;58.19;101904.38;5033740;28;20044;-70
2021/01/18 03:31:19;;;;;;;27.05;18.77;;;;;;;1.81;58.22;101908.69;5033720;28;20046;-70
2021/01/18 03:33:45;;;;;;;30.75;20.20;;;;;;;1.79;57.89;101905.22;5033741;28;20049;-71
2021/01/18 03:36:11;;;;;;;28.73;19.52;;;;;;;1.79;58.19;101903.50;5033443;28;20049;-70
2021/01/18 03:38:37;;;;;;;34.90;20.15;;;;;;;1.78;58.23;101912.13;5020059;28;20422;-71
2021/01/18 03:41:04;;;;;;;33.05;19.90;;;;;;;1.78;58.23;101912.13;5033763;28;20048;-70
2021/01/18 03:43:30;;;;;;;32.50;21.30;;;;;;;1.78;58.32;101908.69;5033388;28;20041;-70
2021/01/18 03:45:56;;;;;;;33.72;20.92;;;;;;;1.77;58.38;101897.47;5033745;28;20402;-70
2021/01/18 03:48:23;;;;;;;35.88;21.15;;;;;;;1.76;58.48;101900.91;5033229;28;20052;-70
2021/01/18 03:50:50;;;;;;;30.27;20.38;;;;;;;1.76;58.59;101897.47;5033165;28;20375;-70
2021/01/18 03:53:16;;;;;;;31.80;19.77;;;;;;;1.73;58.38;101902.66;5033450;28;20049;-70
2021/01/18 03:55:43;;;;;;;34.13;19.98;;;;;;;1.65;58.00;101910.44;5033458;28;20505;-71
2021/01/18 03:58:09;;;;;;;28.92;19.83;;;;;;;1.59;57.66;101906.13;5033402;28;20048;-71
2021/01/18 04:00:36;;;;;;;33.15;19.85;;;;;;;1.56;57.59;101907.84;5033040;28;20045;-70
2021/01/18 04:03:03;;;;;;;30.55;18.85;;;;;;;1.54;57.61;101918.19;5029677;28;20267;-70
2021/01/18 04:05:29;;;;;;;29.23;19.40;;;;;;;1.53;57.65;101923.38;5029607;28;20042;-70
2021/01/18 04:07:56;;;;;;;30.77;19.45;;;;;;;1.52;57.60;101926.81;5029636;28;20041;-70
2021/01/18 04:10:28;;;;;;;32.75;19.92;;;;;;;1.48;57.43;101927.69;5029419;28;20061;-70
2021/01/18 04:12:55;;;;;;;30.50;19.08;;;;;;;1.45;57.36;101929.38;5029319;28;20448;-70
2021/01/18 04:15:24;;;;;;;31.98;18.80;;;;;;;1.42;57.22;101937.16;5028851;28;20061;-70
2021/01/18 04:17:52;;;;;;;29.67;18.63;;;;;;;1.41;57.22;101929.38;5029413;28;20136;-70
2021/01/18 04:20:20;;;;;;;28.30;19.17;;;;;;;1.40;57.33;101933.69;5029562;28;20045;-70
2021/01/18 04:22:57;;;;;;;28.42;18.17;;;;;;;1.40;57.58;101944.03;5029835;28;20052;-70
2021/01/18 04:25:26;;;;;;;41.00;19.55;;;;;;;1.42;57.44;101942.34;5029400;28;20045;-70
2021/01/18 04:27:53;;;;;;;35.90;19.55;;;;;;;1.42;57.41;101942.34;5029009;28;20049;-70
2021/01/18 04:30:22;;;;;;;40.55;19.88;;;;;;;1.42;57.40;101944.91;5029173;28;20060;-70
2021/01/18 04:33:03;;;;;;;34.53;20.23;;;;;;;1.42;57.38;101946.63;5029505;28;20454;-70
2021/01/18 04:35:30;;;;;;;33.75;18.98;;;;;;;1.41;57.39;101948.38;5028778;28;20041;-70
2021/01/18 04:37:57;;;;;;;34.20;19.15;;;;;;;1.39;57.40;101947.50;5029052;28;20457;-70
2021/01/18 04:40:26;;;;;;;33.80;19.77;;;;;;;1.38;57.75;101945.75;5029091;28;20060;-70
2021/01/18 04:42:53;;;;;;;32.00;18.80;;;;;;;1.41;57.74;101950.94;5029023;28;20068;-69
2021/01/18 04:45:21;;;;;;;33.10;17.92;;;;;;;1.38;57.45;101953.50;5029591;28;20056;-70
2021/01/18 04:47:50;;;;;;;26.40;17.60;;;;;;;1.37;57.46;101961.28;5028979;28;20054;-70
2021/01/18 04:50:19;;;;;;;25.48;18.15;;;;;;;1.35;57.54;101966.44;5028519;28;20516;-70
2021/01/18 04:52:55;;;;;;;27.67;17.40;;;;;;;1.31;57.29;101964.72;5028904;28;20076;-70
2021/01/18 04:55:28;;;;;;;31.30;18.38;;;;;;;1.27;57.12;101969.03;5029019;28;20482;-70
2021/01/18 04:58:05;;;;;;;29.33;17.70;;;;;;;1.24;57.19;101970.75;5029120;28;20054;-70
2021/01/18 05:00:43;;;;;;;25.38;16.52;;;;;;;1.22;57.23;101970.75;5028655;28;20049;-70
2021/01/18 05:03:15;;;;;;;25.98;17.83;;;;;;;1.21;57.28;101968.16;5029244;28;20046;-70
2021/01/18 05:06:05;;;;;;;26.98;17.00;;;;;;;1.21;57.21;101973.34;5028595;28;20055;-70
2021/01/18 05:08:40;;;;;;;25.33;16.40;;;;;;;1.22;57.50;101975.91;5028567;28;20054;-70
2021/01/18 05:11:09;;;;;;;24.90;16.65;;;;;;;1.20;57.70;101979.34;5029134;28;20057;-70
2021/01/18 05:13:36;;;;;;;26.77;17.27;;;;;;;1.20;57.70;101977.63;5028997;28;20073;-70
2021/01/18 05:16:02;;;;;;;22.05;15.15;;;;;;;1.20;57.70;101987.13;5028309;28;20049;-70
2021/01/18 05:18:34;;;;;;;41.75;20.65;;;;;;;1.20;57.74;101997.47;5028464;28;20049;-70
2021/01/18 05:21:05;;;;;;;40.00;20.45;;;;;;;1.18;57.72;101996.56;5028524;28;20254;-70
2021/01/18 05:23:38;;;;;;;33.53;17.98;;;;;;;1.18;57.72;101999.16;5028716;28;20080;-70
2021/01/18 05:26:27;;;;;;;31.63;18.02;;;;;;;1.15;57.53;101997.44;5028561;28;20414;-70
2021/01/18 05:28:55;;;;;;;35.63;21.30;;;;;;;1.12;57.74;102000.88;5032658;28;20064;-70
2021/01/18 05:31:27;;;;;;;42.95;23.38;;;;;;;1.10;57.49;102002.59;5032622;28;20470;-70
2021/01/18 05:33:55;;;;;;;55.72;26.65;;;;;;;1.09;57.56;102003.47;5032574;28;20056;-70
2021/01/18 05:36:40;;;;;;;58.58;28.52;;;;;;;1.09;57.48;102006.06;5032268;28;20463;-70
2021/01/18 05:39:13;;;;;;;58.75;26.20;;;;;;;1.10;57.58;102006.91;5032667;28;20107;-71
2021/01/18 05:41:40;;;;;;;49.70;25.45;;;;;;;1.10;57.67;102001.72;5032253;28;20489;-70
2021/01/18 05:44:07;;;;;;;38.25;20.65;;;;;;;1.09;57.74;102006.06;5032417;28;20045;-71
2021/01/18 05:46:35;;;;;;;32.45;18.52;;;;;;;1.07;57.62;102012.94;5031532;28;20493;-71
2021/01/18 05:49:07;;;;;;;34.10;17.67;;;;;;;1.07;57.63;102012.94;5032030;28;20482;-70
2021/01/18 05:51:34;;;;;;;38.65;18.85;;;;;;;1.05;57.60;102012.03;5032490;28;20490;-70
2021/01/18 05:54:02;;;;;;;50.03;23.70;;;;;;;1.05;57.67;102013.78;5031275;28;20046;-71
2021/01/18 05:56:46;;;;;;;50.03;24.73;;;;;;;1.04;57.67;102028.44;5042157;28;20500;-68
2021/01/18 05:59:20;;;;;;;46.20;23.25;;;;;;;1.03;57.64;102025.81;5023458;28;20053;-67
2021/01/18 06:01:48;;;;;;;36.22;21.40;;;;;;;1.03;57.75;102023.25;5030919;28;20041;-69
2021/01/18 06:04:27;;;;;;;40.35;21.65;;;;;;;1.03;57.88;102023.25;5032298;28;20395;-67
2021/01/18 06:06:59;;;;;;;33.30;19.75;;;;;;;1.03;57.99;102024.13;5031649;28;20053;-69
2021/01/18 06:09:44;;;;;;;38.22;18.98;;;;;;;1.04;58.24;102032.72;5032034;28;20045;-68
2021/01/18 06:12:28;;;;;;;28.30;17.73;;;;;;;1.05;58.37;102034.47;5031884;28;20048;-69
2021/01/18 06:15:13;;;;;;;36.30;19.42;;;;;;;1.05;58.56;102044.78;5031148;28;20049;-69
2021/01/18 06:17:48;;;;;;;31.45;18.83;;;;;;;1.05;58.36;102047.38;5030754;28;20049;-68
2021/01/18 06:20:19;;;;;;;35.33;18.40;;;;;;;1.03;58.32;102041.34;5031800;28;20490;-70
2021/01/18 06:22:50;;;;;;;38.40;19.52;;;;;;;1.02;58.32;102048.22;5031462;28;20041;-67
2021/01/18 06:25:16;;;;;;;31.42;18.60;;;;;;;1.01;58.33;102050.81;5031619;28;20080;-71
2021/01/18 06:27:42;;;;;;;34.47;18.77;;;;;;;1.01;58.27;102062.00;5031676;28;20242;-68
2021/01/18 06:30:29;;;;;;;121.80;42.03;;;;;;;1.02;58.29;102055.13;5040777;28;20050;-69
2021/01/18 06:32:58;;;;;;;122.15;42.35;;;;;;;1.01;58.40;102056.84;5046931;28;20051;-70
2021/01/18 06:35:29;;;;;;;86.25;33.58;;;;;;;1.00;58.46;102060.28;5031194;28;20038;-69
2021/01/18 06:38:20;;;;;;;90.97;32.72;;;;;;;1.00;58.64;102064.59;5031048;28;20088;-68
2021/01/18 06:40:56;;;;;;;91.65;34.13;;;;;;;0.98;58.75;102059.44;5028565;28;20046;-68
2021/01/18 06:43:22;;;;;;;;;;;;;;;0.97;58.49;102060.28;5031893;28;20045;-69
2021/01/18 06:45:48;;;;;;;60.60;27.33;;;;;;;0.97;58.67;102060.28;5031204;28;20444;-67
2021/01/18 06:48:15;;;;;;;60.10;28.70;;;;;;;0.95;58.50;102062.84;5031133;28;20447;-67
2021/01/18 06:50:42;;;;;;;50.50;26.67;;;;;;;0.94;58.55;102048.19;5030805;28;20053;-68
2021/01/18 06:53:22;;;;;;;58.75;29.38;;;;;;;1.06;60.49;102055.13;5030926;28;20498;-66
2021/01/18 06:56:22;;;;;;;61.00;31.38;;;;;;;1.15;60.76;102067.25;5030994;28;20050;-67
2021/01/18 06:59:19;;;;;;;55.60;26.52;;;;;;;1.13;60.27;102066.34;5030143;28;20053;-67
2021/01/18 07:01:46;;;;;;;55.22;27.75;;;;;;;1.10;60.03;102064.63;5027369;28;20057;-66
2021/01/18 07:04:15;;;;;;;59.10;29.08;;;;;;;1.08;59.81;102062.88;5030440;28;20375;-67
2021/01/18 07:06:45;;;;;;;47.80;26.63;;;;;;;1.03;59.45;102073.22;5030394;28;20037;-67
2021/01/18 07:09:11;;;;;;;38.90;21.92;;;;;;;1.02;59.46;102070.66;5030253;28;20053;-66
2021/01/18 07:11:59;;;;;;;40.17;24.52;;;;;;;1.05;60.15;102076.66;5029839;28;20107;-66
2021/01/18 07:14:28;;;;;;;51.22;26.70;;;;;;;1.02;59.69;102071.50;5042496;28;20401;-68
2021/01/18 07:17:03;;;;;;;49.53;25.92;;;;;;;1.02;59.32;102078.41;5046239;28;20476;-67
2021/01/18 07:19:36;;;;;;;56.65;28.38;;;;;;;1.04;59.31;102081.84;5044645;28;20087;-67
2021/01/18 07:22:25;;;;;;;54.55;28.75;;;;;;;1.05;59.25;102089.59;5047625;28;20052;-67
2021/01/18 07:24:58;;;;;;;54.30;27.70;;;;;;;1.09;59.22;102095.66;5047141;28;20049;-67
2021/01/18 07:27:25;;;;;;;53.38;26.83;;;;;;;1.16;59.23;102097.41;5048619;28;20060;-67
2021/01/18 07:29:52;;;;;;;70.00;29.55;;;;;;;1.22;59.13;102089.69;5043392;28;20132;-67
2021/01/18 07:32:21;;;;;;;68.70;27.08;;;;;;;1.32;59.06;102092.28;5044151;28;20099;-67
2021/01/18 07:34:47;;;;;;;56.53;28.52;;;;;;;1.39;58.79;102089.72;5041728;28;20123;-67
2021/01/18 07:37:14;;;;;;;54.15;28.35;;;;;;;1.46;58.72;102094.06;5042575;28;20041;-67
2021/01/18 07:39:42;;;;;;;49.55;27.13;;;;;;;1.55;58.55;102094.94;5044513;28;20060;-67
2021/01/18 07:42:34;;;;;;;57.95;30.38;;;;;;;1.63;58.66;102106.19;5042501;28;20040;-67
2021/01/18 07:45:12;;;;;;;46.38;28.50;;;;;;;1.68;58.48;102101.91;5042054;28;20052;-67
2021/01/18 07:47:54;;;;;;;56.45;29.15;;;;;;;1.74;58.70;102107.09;5045642;28;20473;-67
2021/01/18 07:50:34;;;;;;;53.70;27.35;;;;;;;1.82;58.43;102108.84;5037570;28;20042;-67
2021/01/18 07:53:06;;;;;;;47.75;26.75;;;;;;;1.90;58.53;102117.47;5042959;28;20052;-66
2021/01/18 07:55:33;;;;;;;56.95;28.73;;;;;;;1.95;58.73;102118.34;5040155;28;20509;-66
2021/01/18 07:58:22;;;;;;;56.97;28.67;;;;;;;2.04;58.72;102126.09;5045007;28;20045;-67
2021/01/18 08:00:50;;;;;;;50.45;27.65;;;;;;;2.11;58.72;102133.03;5043985;28;20063;-66
2021/01/18 08:03:21;;;;;;;51.78;28.15;;;;;;;2.19;58.96;102130.44;5045582;28;20049;-68
2021/01/18 08:05:48;;;;;;;46.75;26.60;;;;;;;2.25;58.87;102137.38;5035542;28;20061;-66
2021/01/18 08:08:26;;;;;;;45.50;25.90;;;;;;;2.32;59.03;102146.84;5033174;28;20044;-65
2021/01/18 08:11:02;;;;;;;44.72;26.20;;;;;;;2.40;59.29;102146.84;5042238;28;20053;-67
2021/01/18 08:13:29;;;;;;;45.55;26.48;;;;;;;2.47;59.69;102148.59;5035517;28;20133;-66
2021/01/18 08:16:17;;;;;;;39.85;24.75;;;;;;;2.57;59.56;102157.22;5036445;28;20578;-66
2021/01/18 08:18:53;;;;;;;38.80;22.45;;;;;;;2.73;59.69;102147.69;5036200;28;20494;-65
2021/01/18 08:21:42;;;;;;;43.55;24.38;;;;;;;2.87;59.40;102158.03;5041464;28;20171;-66
2021/01/18 08:24:23;;;;;;;45.72;26.20;;;;;;;3.05;59.05;102164.94;5028901;28;20046;-65
2021/01/18 08:26:49;;;;;;;42.57;24.37;;;;;;;3.24;58.50;102166.63;5028080;28;20504;-65
2021/01/18 08:29:38;;;;;;;40.03;24.70;;;;;;;3.47;58.30;102172.63;5028458;28;20045;-65
2021/01/18 08:32:30;;;;;;;38.55;24.67;;;;;;;3.64;58.10;102164.75;5019574;28;20057;-66
2021/01/18 08:34:58;;;;;;;35.47;22.42;;;;;;;3.70;57.90;102162.97;5037455;28;20120;-65
2021/01/18 08:37:26;;;;;;;35.17;22.63;;;;;;;3.85;57.93;102164.63;5028552;28;20057;-65
2021/01/18 08:40:14;;;;;;;34.85;20.75;;;;;;;4.00;57.52;102173.19;5028653;28;20041;-66
2021/01/18 08:42:43;;;;;;;35.35;21.60;;;;;;;4.13;57.38;102182.66;5039546;28;20041;-66
2021/01/18 08:45:29;;;;;;;38.30;22.63;;;;;;;4.22;57.33;102174.78;5031900;28;20446;-65
2021/01/18 08:47:58;;;;;;;31.20;21.25;;;;;;;4.23;57.14;102186.91;5042678;28;20056;-64
2021/01/18 08:50:26;;;;;;;34.47;21.83;;;;;;;4.16;57.22;102182.59;5038793;28;20048;-67
2021/01/18 08:52:57;;;;;;;32.55;19.63;;;;;;;4.08;57.09;102182.66;5028380;28;20383;-67
2021/01/18 08:55:30;;;;;;;30.42;19.20;;;;;;;4.00;56.70;102187.06;5028262;28;20614;-67
2021/01/18 08:58:00;;;;;;;32.90;21.58;;;;;;;3.99;56.42;102194.88;5028321;28;20133;-67
2021/01/18 09:00:42;;;;;;;32.83;21.92;;;;;;;4.05;56.22;102195.69;5027812;28;20045;-67
2021/01/18 09:03:10;;;;;;;33.53;21.80;;;;;;;4.04;55.91;102204.34;5027974;28;20041;-66
2021/01/18 09:05:38;;;;;;;34.47;22.92;;;;;;;4.16;55.81;102211.19;5028009;28;20037;-66
2021/01/18 09:08:07;;;;;;;32.83;22.25;;;;;;;4.09;55.44;102207.78;5028154;28;20500;-67
2021/01/18 09:10:34;;;;;;;33.03;21.98;;;;;;;4.06;55.38;102218.19;5028278;28;20081;-66
2021/01/18 09:13:03;;;;;;;35.10;22.83;;;;;;;4.03;55.35;102213.00;5028005;28;20045;-66
2021/01/18 09:15:30;;;;;;;33.20;23.33;;;;;;;4.08;55.38;102215.59;5027573;28;20053;-67
2021/01/18 09:18:08;;;;;;;36.90;23.45;;;;;;;4.34;54.87;102219.75;5059688;28;20048;-67
2021/01/18 09:20:42;;;;;;;36.08;23.98;;;;;;;4.59;54.43;102217.84;5027850;28;20506;-67
2021/01/18 09:23:10;;;;;;;36.65;23.40;;;;;;;4.86;54.05;102223.69;5027974;28;20054;-67
2021/01/18 09:26:16;;;;;;;40.60;23.23;;;;;;;5.15;53.56;102219.94;5028286;28;20452;-67
2021/01/18 09:28:53;;;;;;;33.65;22.73;;;;;;;5.36;53.10;102222.31;5027854;28;20095;-67
2021/01/18 09:31:21;;;;;;;32.70;22.80;;;;;;;5.52;52.91;102223.03;5028027;28;20041;-67
2021/01/18 09:33:47;;;;;;;35.22;24.17;;;;;;;5.68;52.33;102215.88;5028005;28;20489;-67
2021/01/18 09:36:18;;;;;;;33.15;22.90;;;;;;;5.84;51.89;102221.75;5027427;28;20049;-68
2021/01/18 09:38:46;;;;;;;35.63;23.58;;;;;;;5.99;51.44;102220.75;5027799;28;20065;-66
2021/01/18 09:41:13;;;;;;;34.20;23.08;;;;;;;6.18;50.91;102220.47;5027971;28;20494;-65
2021/01/18 09:43:41;;;;;;;37.50;23.70;;;;;;;6.30;50.49;102219.44;5027571;28;20041;-67
2021/01/18 09:46:08;;;;;;;31.25;22.88;;;;;;;6.42;50.05;102210.56;5027735;28;20045;-66
2021/01/18 09:48:35;;;;;;;34.17;23.15;;;;;;;6.56;49.79;102219.03;5027965;28;20041;-68
2021/01/18 09:51:12;;;;;;;107.72;66.40;;;;;;;6.69;49.14;102212.72;5021513;28;20417;-66
2021/01/18 09:53:39;;;;;;;37.92;27.02;;;;;;;6.83;48.94;102209.00;5028066;28;20056;-68
2021/01/18 09:56:12;;;;;;;52.17;33.05;;;;;;;6.95;48.69;102207.97;5027721;28;20486;-66
2021/01/18 09:58:45;;;;;;;45.55;30.17;;;;;;;7.04;48.44;102202.56;5027678;28;21467;-67
2021/01/18 10:01:14;;;;;;;44.33;27.13;;;;;;;7.13;48.25;102199.78;5026220;28;20052;-67
2021/01/18 10:03:42;;;;;;;19.90;13.35;;;;;;;7.61;50.77;102200.59;5035077;28;20119;-70
2021/01/18 10:06:23;;;;;;;36.08;24.08;;;;;;;7.85;50.51;102207.91;5043684;28;20049;-66
2021/01/18 10:08:52;;;;;;;35.33;22.83;;;;;;;7.91;49.36;102185.16;5030788;28;20056;-66
2021/01/18 10:11:46;;;;;;;29.38;21.98;;;;;;;7.98;48.33;102190.19;5027667;28;20099;-66
2021/01/18 10:14:33;;;;;;;29.52;20.15;;;;;;;8.04;47.64;102175.28;5030305;28;20045;-66
2021/01/18 10:17:01;;;;;;;;;;;;;;;8.08;47.12;102179.56;5042729;28;20049;-66
2021/01/18 10:19:28;;;;;;;76.65;41.90;;;;;;;8.14;46.69;102182.03;5043458;28;19927;-67
2021/01/18 10:21:54;;;;;;;28.25;22.05;;;;;;;8.16;46.44;102175.00;5040218;28;20042;-66
2021/01/18 10:24:35;;;;;;;28.13;20.70;;;;;;;8.21;46.09;102175.75;5030452;28;20046;-66
2021/01/18 10:27:10;;;;;;;26.48;18.75;;;;;;;8.27;45.73;102185.22;5022067;28;20501;-67
2021/01/18 10:29:43;;;;;;;54.65;45.40;;;;;;;8.29;45.03;102186.03;5043308;28;20520;-67
2021/01/18 10:32:10;;;;;;;32.50;23.13;;;;;;;8.36;45.13;102186.75;5019439;28;20054;-66
2021/01/18 10:34:37;;;;;;;38.17;27.38;;;;;;;8.40;44.54;102191.00;5046602;28;20049;-67
2021/01/18 10:37:19;;;;;;;29.63;19.42;;;;;;;8.46;44.72;102176.03;5020907;28;20471;-65
2021/01/18 10:39:46;;;;;;;23.98;17.15;;;;;;;8.50;44.05;102175.06;5042139;28;20045;-66
2021/01/18 10:42:18;;;;;;;27.25;18.48;;;;;;;8.56;43.72;102173.19;5030889;28;20128;-66
2021/01/18 10:44:51;;;;;;;16.98;11.02;;;;;;;8.65;44.21;102167.75;5030693;28;20050;-67
2021/01/18 10:47:22;;;;;;;22.65;11.52;;;;;;;9.20;50.21;102165.41;5017951;28;20139;-65
2021/01/18 10:49:58;;;;;;;20.95;12.05;;;;;;;9.73;52.08;102158.66;5030611;28;20084;-66
2021/01/18 10:52:39;;;;;;;28.48;16.58;;;;;;;10.13;52.38;102160.03;5030049;28;20542;-66
2021/01/18 10:55:07;;;;;;;23.95;15.98;;;;;;;10.44;51.83;102153.81;5030281;28;20103;-66
2021/01/18 10:57:46;;;;;;;27.38;17.67;;;;;;;10.70;51.59;102152.06;5030243;28;20049;-65
2021/01/18 11:00:20;;;;;;;28.50;19.90;;;;;;;10.88;51.15;102150.56;5030323;28;20132;-66
2021/01/18 11:03:03;;;;;;;30.67;22.08;;;;;;;10.97;50.14;102150.25;5032877;28;20045;-66
2021/01/18 11:05:34;;;;;;;45.13;30.45;;;;;;;10.65;47.07;102140.88;5040874;28;20049;-66
2021/01/18 11:08:03;;;;;;;34.15;25.77;;;;;;;10.30;45.80;102136.72;5039391;28;20040;-67
2021/01/18 11:10:30;;;;;;;32.92;24.90;;;;;;;10.01;44.85;102137.69;5045079;28;20052;-67
2021/01/18 11:12:58;;;;;;;26.60;19.88;;;;;;;9.79;44.45;102134.88;5041703;28;20045;-65
2021/01/18 11:15:28;;;;;;;28.30;19.10;;;;;;;9.61;43.30;102128.41;5045574;28;20056;-66
2021/01/18 11:17:55;;;;;;;34.05;23.92;;;;;;;9.42;42.55;102138.59;5042990;28;20095;-70
2021/01/18 11:20:30;;;;;;;27.65;20.58;;;;;;;9.24;42.60;102129.50;5046753;28;20037;-66
2021/01/18 11:22:56;;;;;;;27.33;19.48;;;;;;;9.13;42.26;102125.44;5041701;28;20041;-66
2021/01/18 11:25:23;;;;;;;24.80;19.33;;;;;;;9.02;42.38;102129.28;5042638;28;20041;-66
2021/01/18 11:27:49;;;;;;;54.08;35.72;;;;;;;8.86;42.51;102121.81;5043764;28;20045;-66
2021/01/18 11:30:16;;;;;;;26.52;19.63;;;;;;;8.73;42.87;102115.19;5042317;28;20049;-67
2021/01/18 11:32:42;;;;;;;77.30;50.72;;;;;;;8.65;42.98;102116.25;5045073;28;20045;-67
2021/01/18 11:35:11;;;;;;;28.77;21.58;;;;;;;8.60;43.06;102117.28;5042537;28;20053;-66
2021/01/18 11:37:38;;;;;;;26.77;20.30;;;;;;;8.52;43.01;102114.88;5038490;28;20160;-66
2021/01/18 11:40:07;;;;;;;26.58;19.20;;;;;;;8.49;43.22;102115.81;5027607;28;20041;-67